EWG8M EDDH-EDDM
Flight info
| Callsign | EWG8M |
|---|---|
| Flight time | 1h 4m |
| Altitude | 35000 |
| Route | AMLUH2C/05 AMLUH M852 DENIX DCT ZUCKA DCT SODRO/N0416F310 T703 LULAR/N0416F300 T105 LANDU |
| Aircraft | A320/M-SDE3FGHIRWY/LB1 |
Departure
| Time | 2026-05-07 14:37 |
|---|---|
| Airport | Hamburg Helmut Schmidt Airport (EDDH) |
Arrival
| Time | 2026-05-07 15:42 |
|---|---|
| Airport | Munich Airport (EDDM) |
| Time | Latitude | Longitude | Altitude | Speed | Heading |
|---|---|---|---|---|---|
| 2026-05-07 13:52 | 53.63245 | 10.00357 | 49 ft | 0 kts | 86° |
| 2026-05-07 14:26 | 53.63244 | 10.00335 | 48 ft | 2 kts | 86° |
| 2026-05-07 14:26 | 53.63243 | 10.00307 | 48 ft | 2 kts | 86° |
| 2026-05-07 14:26 | 53.63242 | 10.00278 | 48 ft | 2 kts | 86° |
| 2026-05-07 14:26 | 53.63240 | 10.00250 | 43 ft | 2 kts | 86° |
| 2026-05-07 14:27 | 53.63239 | 10.00221 | 44 ft | 2 kts | 86° |
| 2026-05-07 14:27 | 53.63239 | 10.00193 | 44 ft | 2 kts | 130° |
| 2026-05-07 14:27 | 53.63249 | 10.00180 | 45 ft | 0 kts | 184° |
| 2026-05-07 14:29 | 53.63248 | 10.00179 | 45 ft | 0 kts | 184° |
| 2026-05-07 14:30 | 53.63227 | 10.00179 | 43 ft | 6 kts | 178° |
| 2026-05-07 14:30 | 53.63185 | 10.00183 | 48 ft | 6 kts | 177° |
| 2026-05-07 14:30 | 53.63148 | 10.00187 | 48 ft | 6 kts | 176° |
| 2026-05-07 14:30 | 53.63081 | 10.00188 | 48 ft | 10 kts | 190° |
| 2026-05-07 14:31 | 53.63022 | 10.00138 | 46 ft | 9 kts | 209° |
| 2026-05-07 14:31 | 53.62970 | 10.00086 | 48 ft | 8 kts | 211° |
| 2026-05-07 14:31 | 53.62930 | 10.00028 | 48 ft | 7 kts | 239° |
| 2026-05-07 14:31 | 53.62909 | 9.99960 | 48 ft | 6 kts | 242° |
| 2026-05-07 14:32 | 53.62898 | 9.99927 | 47 ft | 0 kts | 242° |
| 2026-05-07 14:32 | 53.62887 | 9.99891 | 45 ft | 11 kts | 243° |
| 2026-05-07 14:33 | 53.62869 | 9.99752 | 44 ft | 10 kts | 304° |
| 2026-05-07 14:33 | 53.62889 | 9.99728 | 45 ft | 0 kts | 333° |
| 2026-05-07 14:35 | 53.62910 | 9.99709 | 45 ft | 15 kts | 333° |
| 2026-05-07 14:35 | 53.62947 | 9.99677 | 45 ft | 0 kts | 333° |
| 2026-05-07 14:36 | 53.62957 | 9.99669 | 45 ft | 9 kts | 333° |
| 2026-05-07 14:37 | 53.63237 | 9.99436 | 47 ft | 83 kts | 335° |
| 2026-05-07 14:37 | 53.64901 | 9.98120 | 591 ft | 151 kts | 339° |
| 2026-05-07 14:37 | 53.65880 | 9.97406 | 1380 ft | 154 kts | 342° |
| 2026-05-07 14:38 | 53.66879 | 9.96661 | 2048 ft | 162 kts | 341° |
| 2026-05-07 14:38 | 53.67921 | 9.95867 | 2715 ft | 166 kts | 340° |
| 2026-05-07 14:38 | 53.68960 | 9.95049 | 3407 ft | 168 kts | 341° |
| 2026-05-07 14:38 | 53.70121 | 9.94521 | 3884 ft | 179 kts | 358° |
| 2026-05-07 14:39 | 53.71388 | 9.94525 | 4440 ft | 188 kts | 5° |
| 2026-05-07 14:39 | 53.72749 | 9.94671 | 4824 ft | 206 kts | 11° |
| 2026-05-07 14:39 | 53.74129 | 9.95414 | 5067 ft | 209 kts | 36° |
| 2026-05-07 14:39 | 53.74956 | 9.97488 | 5467 ft | 224 kts | 78° |
| 2026-05-07 14:40 | 53.75078 | 10.00061 | 6557 ft | 218 kts | 89° |
| 2026-05-07 14:40 | 53.74743 | 10.02570 | 7412 ft | 224 kts | 114° |
| 2026-05-07 14:40 | 53.73955 | 10.04899 | 8084 ft | 238 kts | 122° |
| 2026-05-07 14:40 | 53.72944 | 10.07304 | 8571 ft | 263 kts | 122° |
| 2026-05-07 14:41 | 53.71954 | 10.10023 | 9232 ft | 278 kts | 119° |
| 2026-05-07 14:41 | 53.70991 | 10.12904 | 10080 ft | 285 kts | 118° |
| 2026-05-07 14:41 | 53.69976 | 10.15899 | 10555 ft | 306 kts | 123° |
| 2026-05-07 14:41 | 53.68561 | 10.18713 | 11080 ft | 322 kts | 137° |
| 2026-05-07 14:42 | 53.66728 | 10.20937 | 11882 ft | 328 kts | 152° |
| 2026-05-07 14:42 | 53.64599 | 10.22369 | 12740 ft | 333 kts | 165° |
| 2026-05-07 14:42 | 53.62350 | 10.23396 | 13603 ft | 336 kts | 166° |
| 2026-05-07 14:42 | 53.60077 | 10.24424 | 14387 ft | 341 kts | 166° |
| 2026-05-07 14:43 | 53.57767 | 10.25468 | 15180 ft | 345 kts | 165° |
| 2026-05-07 14:43 | 53.55465 | 10.26514 | 15906 ft | 350 kts | 166° |
| 2026-05-07 14:43 | 53.53102 | 10.27592 | 16632 ft | 353 kts | 165° |
| 2026-05-07 14:43 | 53.50715 | 10.28683 | 17334 ft | 357 kts | 165° |
| 2026-05-07 14:44 | 53.48308 | 10.29783 | 18027 ft | 361 kts | 166° |
| 2026-05-07 14:44 | 53.45869 | 10.30893 | 18713 ft | 365 kts | 166° |
| 2026-05-07 14:44 | 53.43403 | 10.32011 | 19347 ft | 368 kts | 167° |
| 2026-05-07 14:44 | 53.40923 | 10.33135 | 19963 ft | 371 kts | 167° |
| 2026-05-07 14:45 | 53.38423 | 10.34265 | 20570 ft | 373 kts | 166° |
| 2026-05-07 14:45 | 53.35902 | 10.35401 | 21180 ft | 376 kts | 167° |
| 2026-05-07 14:45 | 53.33368 | 10.36542 | 21785 ft | 379 kts | 167° |
| 2026-05-07 14:45 | 53.30811 | 10.37694 | 22369 ft | 381 kts | 167° |
| 2026-05-07 14:46 | 53.28239 | 10.38850 | 22941 ft | 384 kts | 167° |
| 2026-05-07 14:46 | 53.25677 | 10.39996 | 23487 ft | 388 kts | 166° |
| 2026-05-07 14:46 | 53.23062 | 10.41163 | 23975 ft | 391 kts | 166° |
| 2026-05-07 14:46 | 53.20425 | 10.42337 | 24443 ft | 393 kts | 166° |
| 2026-05-07 14:47 | 53.17773 | 10.43515 | 24910 ft | 396 kts | 166° |
| 2026-05-07 14:47 | 53.15103 | 10.44702 | 25367 ft | 399 kts | 166° |
| 2026-05-07 14:47 | 53.12411 | 10.45880 | 25811 ft | 401 kts | 167° |
| 2026-05-07 14:47 | 53.09676 | 10.46903 | 26249 ft | 403 kts | 169° |
| 2026-05-07 14:48 | 53.06910 | 10.47784 | 26701 ft | 406 kts | 171° |
| 2026-05-07 14:48 | 53.04119 | 10.48590 | 27126 ft | 408 kts | 171° |
| 2026-05-07 14:48 | 53.01302 | 10.49382 | 27551 ft | 411 kts | 171° |
| 2026-05-07 14:48 | 52.98476 | 10.50193 | 27972 ft | 414 kts | 171° |
| 2026-05-07 14:49 | 52.95632 | 10.51037 | 28382 ft | 417 kts | 170° |
| 2026-05-07 14:49 | 52.92767 | 10.51915 | 28783 ft | 419 kts | 170° |
| 2026-05-07 14:49 | 52.89892 | 10.52810 | 29180 ft | 422 kts | 169° |
| 2026-05-07 14:49 | 52.86998 | 10.53713 | 29587 ft | 425 kts | 169° |
| 2026-05-07 14:50 | 52.84086 | 10.54626 | 29985 ft | 427 kts | 169° |
| 2026-05-07 14:50 | 52.81155 | 10.55545 | 30333 ft | 430 kts | 169° |
| 2026-05-07 14:50 | 52.78206 | 10.56460 | 30662 ft | 433 kts | 169° |
| 2026-05-07 14:50 | 52.75234 | 10.57373 | 30964 ft | 435 kts | 170° |
| 2026-05-07 14:51 | 52.72245 | 10.58282 | 31255 ft | 438 kts | 170° |
| 2026-05-07 14:51 | 52.69239 | 10.59193 | 31560 ft | 440 kts | 170° |
| 2026-05-07 14:51 | 52.66221 | 10.60109 | 31976 ft | 440 kts | 170° |
| 2026-05-07 14:51 | 52.63258 | 10.61014 | 32403 ft | 439 kts | 169° |
| 2026-05-07 14:52 | 52.60220 | 10.61946 | 32854 ft | 438 kts | 169° |
| 2026-05-07 14:52 | 52.57228 | 10.62862 | 33267 ft | 437 kts | 169° |
| 2026-05-07 14:52 | 52.54279 | 10.63763 | 33666 ft | 437 kts | 169° |
| 2026-05-07 14:52 | 52.51287 | 10.64675 | 34092 ft | 437 kts | 169° |
| 2026-05-07 14:53 | 52.48294 | 10.65588 | 34422 ft | 436 kts | 170° |
| 2026-05-07 14:53 | 52.45314 | 10.66495 | 34761 ft | 435 kts | 170° |
| 2026-05-07 14:53 | 52.42333 | 10.67395 | 35019 ft | 436 kts | 170° |
| 2026-05-07 14:53 | 52.39368 | 10.68286 | 35081 ft | 429 kts | 170° |
| 2026-05-07 14:54 | 52.33571 | 10.70024 | 35083 ft | 421 kts | 170° |
| 2026-05-07 14:54 | 52.27824 | 10.71744 | 35085 ft | 419 kts | 170° |
| 2026-05-07 14:55 | 52.22084 | 10.73478 | 35086 ft | 419 kts | 170° |
| 2026-05-07 14:55 | 52.16346 | 10.75202 | 35087 ft | 419 kts | 170° |
| 2026-05-07 14:56 | 52.10603 | 10.76919 | 35088 ft | 419 kts | 170° |
| 2026-05-07 14:56 | 52.04864 | 10.78625 | 35085 ft | 419 kts | 170° |
| 2026-05-07 14:57 | 51.99128 | 10.80327 | 35080 ft | 419 kts | 170° |
| 2026-05-07 14:57 | 51.93427 | 10.82013 | 35076 ft | 419 kts | 170° |
| 2026-05-07 14:58 | 51.87696 | 10.83695 | 35080 ft | 418 kts | 171° |
| 2026-05-07 14:58 | 51.81968 | 10.85378 | 35077 ft | 418 kts | 170° |
| 2026-05-07 14:59 | 51.76246 | 10.87064 | 35072 ft | 418 kts | 171° |
| 2026-05-07 14:59 | 51.70518 | 10.88745 | 35076 ft | 418 kts | 171° |
| 2026-05-07 15:00 | 51.64984 | 10.91527 | 35074 ft | 419 kts | 154° |
| 2026-05-07 15:00 | 51.59753 | 10.95679 | 35071 ft | 419 kts | 154° |
| 2026-05-07 15:01 | 51.55402 | 10.99122 | 35069 ft | 419 kts | 154° |
| 2026-05-07 15:01 | 51.50164 | 11.03252 | 35065 ft | 419 kts | 154° |
| 2026-05-07 15:02 | 51.44919 | 11.07377 | 35062 ft | 420 kts | 155° |
| 2026-05-07 15:02 | 51.39664 | 11.11480 | 35063 ft | 420 kts | 155° |
| 2026-05-07 15:03 | 51.34410 | 11.15564 | 35060 ft | 420 kts | 155° |
| 2026-05-07 15:03 | 51.29159 | 11.19650 | 35057 ft | 419 kts | 155° |
| 2026-05-07 15:04 | 51.23939 | 11.23704 | 35048 ft | 419 kts | 155° |
| 2026-05-07 15:04 | 51.18685 | 11.27773 | 35049 ft | 420 kts | 155° |
| 2026-05-07 15:05 | 51.13424 | 11.31853 | 35050 ft | 421 kts | 155° |
| 2026-05-07 15:05 | 51.08160 | 11.35915 | 35051 ft | 421 kts | 155° |
| 2026-05-07 15:06 | 51.02890 | 11.39970 | 35051 ft | 421 kts | 155° |
| 2026-05-07 15:06 | 50.97617 | 11.44022 | 35045 ft | 421 kts | 155° |
| 2026-05-07 15:07 | 50.92339 | 11.48063 | 35043 ft | 421 kts | 155° |
| 2026-05-07 15:07 | 50.87094 | 11.52054 | 35043 ft | 421 kts | 155° |
| 2026-05-07 15:08 | 50.81821 | 11.56057 | 35035 ft | 421 kts | 155° |
| 2026-05-07 15:08 | 50.76541 | 11.60070 | 35036 ft | 421 kts | 155° |
| 2026-05-07 15:09 | 50.71253 | 11.64082 | 35028 ft | 421 kts | 155° |
| 2026-05-07 15:09 | 50.66003 | 11.68047 | 35030 ft | 421 kts | 156° |
| 2026-05-07 15:10 | 50.60712 | 11.72034 | 35026 ft | 421 kts | 156° |
| 2026-05-07 15:10 | 50.55423 | 11.76008 | 35026 ft | 421 kts | 156° |
| 2026-05-07 15:11 | 50.50139 | 11.79956 | 35023 ft | 420 kts | 156° |
| 2026-05-07 15:11 | 50.44853 | 11.83884 | 35019 ft | 420 kts | 157° |
| 2026-05-07 15:12 | 50.39499 | 11.87565 | 35016 ft | 419 kts | 158° |
| 2026-05-07 15:12 | 50.34120 | 11.91117 | 35016 ft | 419 kts | 158° |
| 2026-05-07 15:13 | 50.28784 | 11.94680 | 35017 ft | 419 kts | 158° |
| 2026-05-07 15:13 | 50.23423 | 11.98288 | 35014 ft | 419 kts | 158° |
| 2026-05-07 15:14 | 50.18064 | 12.01904 | 35005 ft | 420 kts | 158° |
| 2026-05-07 15:14 | 50.12701 | 12.05511 | 35009 ft | 419 kts | 158° |
| 2026-05-07 15:15 | 50.07342 | 12.09087 | 35015 ft | 419 kts | 159° |
| 2026-05-07 15:15 | 50.01986 | 12.12647 | 35004 ft | 418 kts | 159° |
| 2026-05-07 15:16 | 49.96630 | 12.16213 | 34998 ft | 418 kts | 159° |
| 2026-05-07 15:16 | 49.93937 | 12.18001 | 34853 ft | 424 kts | 159° |
| 2026-05-07 15:16 | 49.91224 | 12.19802 | 34619 ft | 424 kts | 159° |
| 2026-05-07 15:17 | 49.88520 | 12.21599 | 34390 ft | 422 kts | 159° |
| 2026-05-07 15:17 | 49.85821 | 12.23388 | 34171 ft | 421 kts | 159° |
| 2026-05-07 15:17 | 49.83166 | 12.25141 | 33918 ft | 419 kts | 159° |
| 2026-05-07 15:17 | 49.80481 | 12.26914 | 33640 ft | 417 kts | 158° |
| 2026-05-07 15:18 | 49.77811 | 12.28676 | 33365 ft | 416 kts | 158° |
| 2026-05-07 15:18 | 49.75152 | 12.30422 | 33090 ft | 413 kts | 159° |
| 2026-05-07 15:18 | 49.72553 | 12.32297 | 32814 ft | 413 kts | 153° |
| 2026-05-07 15:18 | 49.70162 | 12.34761 | 32541 ft | 414 kts | 144° |
| 2026-05-07 15:19 | 49.67876 | 12.37459 | 32303 ft | 412 kts | 145° |
| 2026-05-07 15:19 | 49.65625 | 12.40104 | 32042 ft | 412 kts | 145° |
| 2026-05-07 15:19 | 49.63348 | 12.42765 | 31782 ft | 410 kts | 145° |
| 2026-05-07 15:19 | 49.61071 | 12.45419 | 31532 ft | 409 kts | 145° |
| 2026-05-07 15:20 | 49.58803 | 12.48056 | 31278 ft | 408 kts | 145° |
| 2026-05-07 15:20 | 49.56543 | 12.50678 | 31030 ft | 407 kts | 145° |
| 2026-05-07 15:20 | 49.54284 | 12.53295 | 30783 ft | 406 kts | 145° |
| 2026-05-07 15:20 | 49.52024 | 12.55907 | 30539 ft | 405 kts | 145° |
| 2026-05-07 15:21 | 49.49777 | 12.58505 | 30286 ft | 403 kts | 144° |
| 2026-05-07 15:21 | 49.47544 | 12.61092 | 30034 ft | 401 kts | 144° |
| 2026-05-07 15:21 | 49.45329 | 12.63660 | 29736 ft | 397 kts | 146° |
| 2026-05-07 15:21 | 49.43173 | 12.66293 | 29446 ft | 396 kts | 140° |
| 2026-05-07 15:22 | 49.41080 | 12.69013 | 29153 ft | 391 kts | 149° |
| 2026-05-07 15:22 | 49.38692 | 12.70913 | 28872 ft | 384 kts | 163° |
| 2026-05-07 15:22 | 49.36135 | 12.71916 | 28591 ft | 377 kts | 175° |
| 2026-05-07 15:22 | 49.33535 | 12.72101 | 28318 ft | 371 kts | 187° |
| 2026-05-07 15:23 | 49.31000 | 12.71524 | 28040 ft | 366 kts | 198° |
| 2026-05-07 15:23 | 49.28625 | 12.70224 | 27774 ft | 361 kts | 208° |
| 2026-05-07 15:23 | 49.26355 | 12.68604 | 27478 ft | 359 kts | 207° |
| 2026-05-07 15:23 | 49.24094 | 12.67003 | 27203 ft | 357 kts | 207° |
| 2026-05-07 15:24 | 49.21843 | 12.65416 | 26942 ft | 355 kts | 207° |
| 2026-05-07 15:24 | 49.19607 | 12.63827 | 26695 ft | 353 kts | 208° |
| 2026-05-07 15:24 | 49.17381 | 12.62230 | 26430 ft | 352 kts | 208° |
| 2026-05-07 15:24 | 49.15176 | 12.60641 | 26170 ft | 350 kts | 208° |
| 2026-05-07 15:25 | 49.12975 | 12.59056 | 25913 ft | 349 kts | 208° |
| 2026-05-07 15:25 | 49.10813 | 12.57504 | 25662 ft | 347 kts | 208° |
| 2026-05-07 15:25 | 49.08632 | 12.55945 | 25413 ft | 346 kts | 208° |
| 2026-05-07 15:25 | 49.06452 | 12.54392 | 25164 ft | 344 kts | 208° |
| 2026-05-07 15:26 | 49.04281 | 12.52850 | 24907 ft | 344 kts | 208° |
| 2026-05-07 15:26 | 49.02118 | 12.51306 | 24665 ft | 343 kts | 208° |
| 2026-05-07 15:26 | 48.99964 | 12.49765 | 24420 ft | 342 kts | 208° |
| 2026-05-07 15:26 | 48.97817 | 12.48231 | 24187 ft | 340 kts | 208° |
| 2026-05-07 15:27 | 48.95667 | 12.46696 | 23732 ft | 342 kts | 208° |
| 2026-05-07 15:27 | 48.93479 | 12.45130 | 22767 ft | 352 kts | 208° |
| 2026-05-07 15:27 | 48.91237 | 12.43524 | 21813 ft | 361 kts | 208° |
| 2026-05-07 15:27 | 48.88930 | 12.41878 | 20891 ft | 370 kts | 208° |
| 2026-05-07 15:28 | 48.86611 | 12.40234 | 19988 ft | 364 kts | 208° |
| 2026-05-07 15:28 | 48.84339 | 12.38629 | 19117 ft | 357 kts | 208° |
| 2026-05-07 15:28 | 48.82133 | 12.37073 | 18284 ft | 351 kts | 208° |
| 2026-05-07 15:28 | 48.79921 | 12.35523 | 17329 ft | 346 kts | 206° |
| 2026-05-07 15:29 | 48.77655 | 12.34331 | 16402 ft | 345 kts | 198° |
| 2026-05-07 15:29 | 48.75338 | 12.33439 | 15511 ft | 341 kts | 198° |
| 2026-05-07 15:29 | 48.73046 | 12.32557 | 14638 ft | 337 kts | 198° |
| 2026-05-07 15:29 | 48.70783 | 12.31687 | 13786 ft | 334 kts | 198° |
| 2026-05-07 15:30 | 48.68566 | 12.30835 | 12850 ft | 331 kts | 198° |
| 2026-05-07 15:30 | 48.66347 | 12.29981 | 11936 ft | 327 kts | 198° |
| 2026-05-07 15:30 | 48.64247 | 12.28781 | 11035 ft | 319 kts | 210° |
| 2026-05-07 15:30 | 48.62427 | 12.26952 | 10324 ft | 308 kts | 223° |
| 2026-05-07 15:31 | 48.61005 | 12.24715 | 10111 ft | 283 kts | 234° |
| 2026-05-07 15:31 | 48.59958 | 12.22279 | 10030 ft | 272 kts | 244° |
| 2026-05-07 15:31 | 48.59246 | 12.19638 | 10030 ft | 271 kts | 254° |
| 2026-05-07 15:31 | 48.58871 | 12.16851 | 10029 ft | 271 kts | 264° |
| 2026-05-07 15:32 | 48.58532 | 12.14057 | 10028 ft | 271 kts | 249° |
| 2026-05-07 15:32 | 48.57451 | 12.11727 | 10031 ft | 276 kts | 222° |
| 2026-05-07 15:32 | 48.55775 | 12.10360 | 9777 ft | 278 kts | 197° |
| 2026-05-07 15:32 | 48.53839 | 12.10284 | 9358 ft | 284 kts | 170° |
| 2026-05-07 15:33 | 48.52050 | 12.11566 | 8948 ft | 290 kts | 143° |
| 2026-05-07 15:33 | 48.50604 | 12.13696 | 8517 ft | 292 kts | 135° |
| 2026-05-07 15:33 | 48.49229 | 12.15947 | 8104 ft | 291 kts | 135° |
| 2026-05-07 15:33 | 48.47868 | 12.18193 | 7706 ft | 290 kts | 135° |
| 2026-05-07 15:34 | 48.46530 | 12.20403 | 7339 ft | 288 kts | 134° |
| 2026-05-07 15:34 | 48.45176 | 12.22625 | 6962 ft | 286 kts | 136° |
| 2026-05-07 15:34 | 48.43585 | 12.24320 | 6558 ft | 278 kts | 162° |
| 2026-05-07 15:34 | 48.41714 | 12.24794 | 6138 ft | 271 kts | 182° |
| 2026-05-07 15:35 | 48.39826 | 12.24765 | 5682 ft | 271 kts | 184° |
| 2026-05-07 15:35 | 48.37942 | 12.24679 | 5240 ft | 270 kts | 184° |
| 2026-05-07 15:35 | 48.36078 | 12.24541 | 5005 ft | 268 kts | 191° |
| 2026-05-07 15:35 | 48.34381 | 12.23532 | 5000 ft | 262 kts | 220° |
| 2026-05-07 15:36 | 48.33250 | 12.21459 | 5001 ft | 257 kts | 249° |
| 2026-05-07 15:36 | 48.32963 | 12.18854 | 5001 ft | 254 kts | 279° |
| 2026-05-07 15:36 | 48.33547 | 12.16361 | 5008 ft | 255 kts | 293° |
| 2026-05-07 15:36 | 48.34260 | 12.13925 | 5006 ft | 254 kts | 293° |
| 2026-05-07 15:37 | 48.34951 | 12.11563 | 5003 ft | 238 kts | 293° |
| 2026-05-07 15:37 | 48.35593 | 12.09366 | 5007 ft | 221 kts | 293° |
| 2026-05-07 15:37 | 48.36136 | 12.07290 | 4939 ft | 208 kts | 283° |
| 2026-05-07 15:37 | 48.36263 | 12.05197 | 4814 ft | 201 kts | 270° |
| 2026-05-07 15:38 | 48.36171 | 12.03118 | 4683 ft | 197 kts | 266° |
| 2026-05-07 15:38 | 48.36032 | 12.01105 | 4550 ft | 190 kts | 265° |
| 2026-05-07 15:38 | 48.35890 | 11.99188 | 4422 ft | 177 kts | 265° |
| 2026-05-07 15:38 | 48.35756 | 11.97398 | 4171 ft | 171 kts | 265° |
| 2026-05-07 15:39 | 48.35625 | 11.95641 | 4016 ft | 169 kts | 265° |
| 2026-05-07 15:39 | 48.35494 | 11.93890 | 4020 ft | 169 kts | 265° |
| 2026-05-07 15:39 | 48.35364 | 11.92132 | 3955 ft | 171 kts | 265° |
| 2026-05-07 15:39 | 48.35273 | 11.90379 | 3506 ft | 165 kts | 269° |
| 2026-05-07 15:40 | 48.35163 | 11.88763 | 3203 ft | 148 kts | 265° |
| 2026-05-07 15:40 | 48.35037 | 11.87265 | 2808 ft | 142 kts | 266° |
| 2026-05-07 15:40 | 48.34912 | 11.85806 | 2380 ft | 140 kts | 265° |
| 2026-05-07 15:40 | 48.34771 | 11.84361 | 2028 ft | 137 kts | 267° |
| 2026-05-07 15:41 | 48.34625 | 11.82948 | 1826 ft | 137 kts | 268° |
| 2026-05-07 15:41 | 48.34536 | 11.81513 | 1648 ft | 141 kts | 271° |
| 2026-05-07 15:41 | 48.34447 | 11.80064 | 1487 ft | 136 kts | 270° |
| 2026-05-07 15:41 | 48.34365 | 11.78803 | 1465 ft | 102 kts | 263° |
| 2026-05-07 15:42 | 48.34298 | 11.78005 | 1468 ft | 52 kts | 262° |
| 2026-05-07 15:42 | 48.34268 | 11.77622 | 1470 ft | 33 kts | 264° |
| 2026-05-07 15:42 | 48.34277 | 11.77236 | 1467 ft | 41 kts | 284° |
| 2026-05-07 15:42 | 48.34372 | 11.76866 | 1464 ft | 24 kts | 293° |
| 2026-05-07 15:43 | 48.34399 | 11.76771 | 1464 ft | 0 kts | 293° |
| 2026-05-07 15:43 | 48.34400 | 11.76767 | 1465 ft | 3 kts | 293° |
| 2026-05-07 15:43 | 48.34441 | 11.76682 | 1465 ft | 14 kts | 341° |
| 2026-05-07 15:43 | 48.34558 | 11.76692 | 1466 ft | 16 kts | 41° |
| 2026-05-07 15:44 | 48.34586 | 11.76854 | 1461 ft | 17 kts | 85° |
| 2026-05-07 15:44 | 48.34596 | 11.77041 | 1463 ft | 19 kts | 85° |
| 2026-05-07 15:44 | 48.34613 | 11.77247 | 1464 ft | 23 kts | 83° |
| 2026-05-07 15:44 | 48.34634 | 11.77522 | 1466 ft | 28 kts | 83° |
| 2026-05-07 15:45 | 48.34658 | 11.77818 | 1467 ft | 30 kts | 85° |
| 2026-05-07 15:45 | 48.34682 | 11.78136 | 1457 ft | 32 kts | 82° |
| 2026-05-07 15:45 | 48.34710 | 11.78472 | 1463 ft | 33 kts | 83° |
| 2026-05-07 15:45 | 48.34742 | 11.78822 | 1461 ft | 34 kts | 81° |
| 2026-05-07 15:46 | 48.34778 | 11.79409 | 1464 ft | 27 kts | 84° |
| 2026-05-07 15:46 | 48.34798 | 11.79527 | 1458 ft | 3 kts | 57° |
| 2026-05-07 15:46 | 48.34808 | 11.79540 | 1461 ft | 2 kts | 34° |
| 2026-05-07 15:47 | 48.34877 | 11.79551 | 1464 ft | 14 kts | 358° |
| 2026-05-07 15:47 | 48.34987 | 11.79532 | 1464 ft | 21 kts | 353° |
| 2026-05-07 15:47 | 48.35146 | 11.79505 | 1461 ft | 23 kts | 353° |
| 2026-05-07 15:47 | 48.35292 | 11.79475 | 1464 ft | 16 kts | 351° |
| 2026-05-07 15:48 | 48.35386 | 11.79476 | 1467 ft | 13 kts | 17° |
| 2026-05-07 15:48 | 48.35476 | 11.79516 | 1467 ft | 13 kts | 356° |
| 2026-05-07 15:48 | 48.35576 | 11.79499 | 1460 ft | 16 kts | 354° |
| 2026-05-07 15:48 | 48.35692 | 11.79481 | 1460 ft | 18 kts | 353° |
| 2026-05-07 15:49 | 48.35823 | 11.79455 | 1467 ft | 20 kts | 352° |
| 2026-05-07 15:49 | 48.35885 | 11.79317 | 1467 ft | 8 kts | 258° |
| 2026-05-07 15:49 | 48.35882 | 11.79242 | 1467 ft | 6 kts | 276° |
| 2026-05-07 15:49 | 48.35881 | 11.79223 | 1463 ft | 2 kts | 260° |
| 2026-05-07 15:50 | 48.35880 | 11.79219 | 1464 ft | 0 kts | 258° |